Picton Castle — E5WP — position and weather

sailwx.info

Track history (hours):
 
Tides and Currents Weather Stations Pressure Air Temp Water Temp Dewpoint Dewpoint Depression Visibility Wind Speed Wind Dir Waves Ship Positions

Picton Castle (Cook Islands)

Ship's website: http://www.picton-castle.com/

Last reported at 2017-Jun-23 04:53 UTC. Time now 2017-Jun-28 22:51 UTC.
Position N 42°41' W 069°50'.

Length 37 m; draft 4.4 m.

Type: Sailing vessel. MMSI: 518000019.

Date/timePositionNaut miles runAvg speedWind from/ knotsBaromVisibWave heightAir tempDewpointWater temp
2017-Jun-23 04:53N 42°41' W 069°50'1 3.2
2017-Jun-23 04:29N 42°41' W 069°52'3 3.3
2017-Jun-23 03:38N 42°41' W 069°56'1 4.0
2017-Jun-23 03:27N 42°41' W 069°57'2 4.2
2017-Jun-23 03:00N 42°41' W 069°59'2 4.2
2017-Jun-23 02:30N 42°41' W 070°02'2 4.4
2017-Jun-23 02:00N 42°41' W 070°05'2 4.7
2017-Jun-23 01:30N 42°41' W 070°08'2 3.8
2017-Jun-23 01:00N 42°41' W 070°11'2 3.3
2017-Jun-23 00:30N 42°41' W 070°13'2 4.4
2017-Jun-23 00:00N 42°41' W 070°16'3 4.9
2017-Jun-22 23:30N 42°40' W 070°19'2 4.8
2017-Jun-22 23:00N 42°39' W 070°23'3 5.3
2017-Jun-22 22:30N 42°38' W 070°26'3 6.5
2017-Jun-22 22:00N 42°37' W 070°29'4 7.5
2017-Jun-22 21:30N 42°34' W 070°33'4 7.1
2017-Jun-22 21:00N 42°32' W 070°37'4 7.3
2017-Jun-22 20:30N 42°30' W 070°41'4 7.5
2017-Jun-22 20:00N 42°28' W 070°45'4 7.1
2017-Jun-22 19:30N 42°26' W 070°49'3 6.9
2017-Jun-22 19:00N 42°24' W 070°53'4 7.7
2017-Jun-22 18:30N 42°21' W 070°56'3 6.0
2017-Jun-22 18:00N 42°20' W 071°00'2 3.1
2017-Jun-22 17:29N 42°21' W 071°02'0 0.1
2017-Jun-22 16:59N 42°21' W 071°02'0 0.0
2017-Jun-22 16:29N 42°21' W 071°02'0 0.0
2017-Jun-22 15:59N 42°21' W 071°02'0 0.0
2017-Jun-22 15:29N 42°21' W 071°02'0 0.0
2017-Jun-22 14:58N 42°21' W 071°02'0 0.0
2017-Jun-22 14:28N 42°21' W 071°02'0 0.0
2017-Jun-22 13:28N 42°21' W 071°02'0 0.1
2017-Jun-22 12:58N 42°21' W 071°02'0 0.1
2017-Jun-22 12:28N 42°21' W 071°02'0 0.0
2017-Jun-22 11:55N 42°21' W 071°02'0 0.0
2017-Jun-22 11:28N 42°21' W 071°02'0 0.0
2017-Jun-22 10:55N 42°21' W 071°02'0 0.0
2017-Jun-22 10:28N 42°21' W 071°02'0 0.0
2017-Jun-22 09:55N 42°21' W 071°02'0 0.0
2017-Jun-22 09:28N 42°21' W 071°02'0 0.0
2017-Jun-22 08:58N 42°21' W 071°02'0 0.0
2017-Jun-22 08:22N 42°21' W 071°02'0 0.0
2017-Jun-22 06:13N 42°21' W 071°02'0 0.0
2017-Jun-22 05:55N 42°21' W 071°02'0 0.0
2017-Jun-22 05:22N 42°21' W 071°02'0 0.0
2017-Jun-22 05:00N 42°21' W 071°02'0 0.0
2017-Jun-22 04:30N 42°21' W 071°02'0 0.0
2017-Jun-22 04:00N 42°21' W 071°02'0 0.0
2017-Jun-22 03:30N 42°21' W 071°02'0 0.0
2017-Jun-22 03:00N 42°21' W 071°02'0 0.0
2017-Jun-22 02:30N 42°21' W 071°02'0 0.0
2017-Jun-22 02:00N 42°21' W 071°02'0 0.0
2017-Jun-22 01:30N 42°21' W 071°02'0 0.0
2017-Jun-22 00:59N 42°21' W 071°02'0 0.0
2017-Jun-22 00:29N 42°21' W 071°02'0 0.1
2017-Jun-21 23:59N 42°21' W 071°02'0 0.1
2017-Jun-21 23:29N 42°21' W 071°02'0 0.0
2017-Jun-21 22:59N 42°21' W 071°02'0 0.0
2017-Jun-21 22:29N 42°21' W 071°02'0 0.0
2017-Jun-21 21:59N 42°21' W 071°02'0 0.0
2017-Jun-21 21:29N 42°21' W 071°02'0 0.0
2017-Jun-21 20:59N 42°21' W 071°02'0 0.0
2017-Jun-21 20:29N 42°21' W 071°02'0 0.0
2017-Jun-21 18:59N 42°21' W 071°02'0 0.0
2017-Jun-21 18:29N 42°21' W 071°02'0 0.0
2017-Jun-21 17:59N 42°21' W 071°02'0 0.0
2017-Jun-21 17:29N 42°21' W 071°02'0 0.0
2017-Jun-21 16:59N 42°21' W 071°02'0 0.0
2017-Jun-21 16:29N 42°21' W 071°02'0 0.0
2017-Jun-21 15:59N 42°21' W 071°02'0 0.0
2017-Jun-21 15:29N 42°21' W 071°02'0 0.0
2017-Jun-21 14:56N 42°21' W 071°02'0 0.0
2017-Jun-21 14:26N 42°21' W 071°02'0 0.0
2017-Jun-21 13:29N 42°21' W 071°02'0 0.0
2017-Jun-21 12:59N 42°21' W 071°02'0 0.0
2017-Jun-21 12:29N 42°21' W 071°02'0 0.0
2017-Jun-21 11:59N 42°21' W 071°02'0 0.0
2017-Jun-21 11:29N 42°21' W 071°02'0 0.0
2017-Jun-21 10:56N 42°21' W 071°02'0 0.0
2017-Jun-21 10:29N 42°21' W 071°02'0 0.0
2017-Jun-21 09:59N 42°21' W 071°02'0 0.0
2017-Jun-21 09:29N 42°21' W 071°02'0 0.0
2017-Jun-21 08:59N 42°21' W 071°02'0 0.0
2017-Jun-21 08:20N 42°21' W 071°02'0 0.0
2017-Jun-21 07:56N 42°21' W 071°02'0 0.0
2017-Jun-21 07:26N 42°21' W 071°02'0 0.0
2017-Jun-21 06:59N 42°21' W 071°02'0 0.0
2017-Jun-21 06:28N 42°21' W 071°02'0 0.0
2017-Jun-21 05:58N 42°21' W 071°02'0 0.0
2017-Jun-21 05:25N 42°21' W 071°02'0 0.1
2017-Jun-21 04:58N 42°21' W 071°02'0 0.1
2017-Jun-21 04:28N 42°21' W 071°02'0 0.0
2017-Jun-21 03:58N 42°21' W 071°02'0 0.0
2017-Jun-21 03:28N 42°21' W 071°02'0 0.0
2017-Jun-21 02:58N 42°21' W 071°02'0 0.0
2017-Jun-21 02:28N 42°21' W 071°02'0 0.0
2017-Jun-21 01:58N 42°21' W 071°02'0 0.0
2017-Jun-21 01:28N 42°21' W 071°02'0 0.0
2017-Jun-21 00:58N 42°21' W 071°02'0 0.0
2017-Jun-21 00:28N 42°21' W 071°02'0 0.0
2017-Jun-20 23:55N 42°21' W 071°02'0 0.0
2017-Jun-20 23:28N 42°21' W 071°02'0 0.0
2017-Jun-20 22:58N 42°21' W 071°02'0 0.0
2017-Jun-20 22:28N 42°21' W 071°02'0 0.1
2017-Jun-20 21:58N 42°21' W 071°02'0 0.0
2017-Jun-20 21:28N 42°21' W 071°02'0 0.0
2017-Jun-20 20:58N 42°21' W 071°02'0 0.0
2017-Jun-20 19:52N 42°21' W 071°02'0 0.0
2017-Jun-20 19:10N 42°21' W 071°02'0 0.0
2017-Jun-20 19:00N 42°21' W 071°02'0 0.0
2017-Jun-20 18:18N 42°21' W 071°02'0 0.0
2017-Jun-20 17:36N 42°21' W 071°02'0 0.0
2017-Jun-20 17:27N 42°21' W 071°02'0 0.0
2017-Jun-20 16:57N 42°21' W 071°02'0 0.1
2017-Jun-20 16:27N 42°21' W 071°02'0 0.0
2017-Jun-20 15:57N 42°21' W 071°02'0 0.0
2017-Jun-20 15:27N 42°21' W 071°02'0 0.0
2017-Jun-20 14:54N 42°21' W 071°02'0 0.0
2017-Jun-20 13:57N 42°21' W 071°02'0 0.0
2017-Jun-20 13:30N 42°21' W 071°02'0 0.0
2017-Jun-20 13:00N 42°21' W 071°02'0 0.0
2017-Jun-20 12:30N 42°21' W 071°02'0 0.0
2017-Jun-20 12:00N 42°21' W 071°02'0 0.0
2017-Jun-20 11:27N 42°21' W 071°02'0 0.0
2017-Jun-20 10:57N 42°21' W 071°02'0 0.0
2017-Jun-20 10:30N 42°21' W 071°02'0 0.0
2017-Jun-20 10:00N 42°21' W 071°02'0 0.0
2017-Jun-20 09:27N 42°21' W 071°02'0 0.0
2017-Jun-20 08:57N 42°21' W 071°02'0 0.0
2017-Jun-20 08:21N 42°21' W 071°02'0 0.0
2017-Jun-20 07:57N 42°21' W 071°02'0 0.0
2017-Jun-20 07:30N 42°21' W 071°02'0 0.0
2017-Jun-20 07:00N 42°21' W 071°02'0 0.0
2017-Jun-20 06:18N 42°21' W 071°02'0 0.0
2017-Jun-20 05:54N 42°21' W 071°02'0 0.0
2017-Jun-20 05:30N 42°21' W 071°02'0 0.0
2017-Jun-20 05:00N 42°21' W 071°02'0 0.0
2017-Jun-20 04:30N 42°21' W 071°02'0 0.0
2017-Jun-20 04:00N 42°21' W 071°02'0 0.0
2017-Jun-20 03:30N 42°21' W 071°02'0 0.0
2017-Jun-20 03:00N 42°21' W 071°02'0 0.0
2017-Jun-20 02:30N 42°21' W 071°02'0 0.0
2017-Jun-20 02:00N 42°21' W 071°02'0 0.1
2017-Jun-20 01:30N 42°21' W 071°02'0 0.0
2017-Jun-20 01:00N 42°21' W 071°02'0 0.0
2017-Jun-20 00:30N 42°21' W 071°02'0 0.0
2017-Jun-19 23:57N 42°21' W 071°02'0 0.0
2017-Jun-19 23:21N 42°21' W 071°02'0 0.0
2017-Jun-19 22:57N 42°21' W 071°02'0 0.0
2017-Jun-19 22:30N 42°21' W 071°02'0 0.0
2017-Jun-19 21:54N 42°21' W 071°02'0 0.0
2017-Jun-19 21:27N 42°21' W 071°02'0 0.0
2017-Jun-19 20:57N 42°21' W 071°02'0 0.0
2017-Jun-19 20:27N 42°21' W 071°02'0 0.0
2017-Jun-19 20:00N 42°21' W 071°02'0 0.0
2017-Jun-19 19:15N 42°21' W 071°02'0 0.0
2017-Jun-19 18:47N 42°21' W 071°02'0 0.0
2017-Jun-19 18:29N 42°21' W 071°02'0 0.0
2017-Jun-19 17:56N 42°21' W 071°02'0 0.0
2017-Jun-19 17:29N 42°21' W 071°02'0 0.0
2017-Jun-19 16:56N 42°21' W 071°02'0 0.0
2017-Jun-19 16:08N 42°21' W 071°02'0 0.1
2017-Jun-19 15:59N 42°21' W 071°02'0 0.0
2017-Jun-19 15:26N 42°21' W 071°02'0 0.0
2017-Jun-19 14:59N 42°21' W 071°02'0 0.0
2017-Jun-19 14:29N 42°21' W 071°02'0 0.0
2017-Jun-19 13:26N 42°21' W 071°02'0 0.1
2017-Jun-19 12:59N 42°21' W 071°02'0 0.0
2017-Jun-19 12:29N 42°21' W 071°02'0 0.0
2017-Jun-19 11:59N 42°21' W 071°02'0 0.0
2017-Jun-19 11:29N 42°21' W 071°02'0 0.0
2017-Jun-19 10:56N 42°21' W 071°02'0 0.0
2017-Jun-19 10:26N 42°21' W 071°02'0 0.0
2017-Jun-19 09:50N 42°21' W 071°02'0 0.0
2017-Jun-19 09:29N 42°21' W 071°02'0 0.0
2017-Jun-19 08:59N 42°21' W 071°02'0 0.0
2017-Jun-19 08:26N 42°21' W 071°02'0 0.0
2017-Jun-19 07:59N 42°21' W 071°02'0 0.0
2017-Jun-19 07:29N 42°21' W 071°02'0 0.0
2017-Jun-19 06:56N 42°21' W 071°02'0 0.0
2017-Jun-19 06:29N 42°21' W 071°02'0 0.0
2017-Jun-19 05:59N 42°21' W 071°02'0 0.0
2017-Jun-19 05:29N 42°21' W 071°02'0 0.0
2017-Jun-19 04:59N 42°21' W 071°02'0 0.0
2017-Jun-19 04:29N 42°21' W 071°02'0 0.0
2017-Jun-19 03:53N 42°21' W 071°02'0 0.0
2017-Jun-19 03:29N 42°21' W 071°02'0 0.0
2017-Jun-19 02:59N 42°21' W 071°02'0 0.0
2017-Jun-19 02:29N 42°21' W 071°02'0 0.0
2017-Jun-19 01:59N 42°21' W 071°02'0 0.2
2017-Jun-19 01:29N 42°21' W 071°02'0 0.2
2017-Jun-19 00:59N 42°21' W 071°02'0 0.0
2017-Jun-19 00:29N 42°21' W 071°02'0 0.0
2017-Jun-18 23:59N 42°21' W 071°02'0 0.0
2017-Jun-18 23:26N 42°21' W 071°02'0 0.0
2017-Jun-18 22:59N 42°21' W 071°02'0 0.0
2017-Jun-18 22:29N 42°21' W 071°02'0 0.0
2017-Jun-18 21:56N 42°21' W 071°02'0 0.0
2017-Jun-18 21:29N 42°21' W 071°02'0 0.0
2017-Jun-18 20:59N 42°21' W 071°02'0 0.0
2017-Jun-18 20:29N 42°21' W 071°02'0 0.0
2017-Jun-18 19:53N 42°21' W 071°02'0 0.0
2017-Jun-18 19:29N 42°21' W 071°02'0 0.1
2017-Jun-18 18:58N 42°21' W 071°02'0 0.0
2017-Jun-18 18:28N 42°21' W 071°02'0 0.0
2017-Jun-18 17:46N 42°21' W 071°02'0 0.1
2017-Jun-18 17:22N 42°21' W 071°02'0 0.1
2017-Jun-18 16:52N 42°21' W 071°02'0 0.0
2017-Jun-18 16:28N 42°21' W 071°02'0 0.0
2017-Jun-18 15:58N 42°21' W 071°02'0 0.0
2017-Jun-18 15:28N 42°21' W 071°02'0 0.0
2017-Jun-18 14:49N 42°21' W 071°02'0 0.0
2017-Jun-18 13:55N 42°21' W 071°02'0 0.1
2017-Jun-18 13:28N 42°21' W 071°02'0 0.0
2017-Jun-18 12:55N 42°21' W 071°02'0 0.0
2017-Jun-18 12:28N 42°21' W 071°02'0 0.0
2017-Jun-18 11:58N 42°21' W 071°02'0 0.0
2017-Jun-18 11:19N 42°21' W 071°02'0 0.0
2017-Jun-18 10:55N 42°21' W 071°02'0 0.0
2017-Jun-18 10:25N 42°21' W 071°02'0 0.0
2017-Jun-18 09:58N 42°21' W 071°02'0 0.0
2017-Jun-18 09:28N 42°21' W 071°02'0 0.0
2017-Jun-18 08:58N 42°21' W 071°02'0 0.0
2017-Jun-18 08:28N 42°21' W 071°02'0 0.0
2017-Jun-18 07:58N 42°21' W 071°02'0 0.0
2017-Jun-18 07:28N 42°21' W 071°02'0 0.0
2017-Jun-18 07:00N 42°21' W 071°02'0 0.0
2017-Jun-18 06:24N 42°21' W 071°02'0 0.0
2017-Jun-18 06:00N 42°21' W 071°02'0 0.0
2017-Jun-18 05:30N 42°21' W 071°02'0 0.0
2017-Jun-18 05:00N 42°21' W 071°02'0 0.0
2017-Jun-18 04:27N 42°21' W 071°02'0 0.0
2017-Jun-18 03:51N 42°21' W 071°02'0 0.0
2017-Jun-18 03:30N 42°21' W 071°02'0 0.0
2017-Jun-18 03:00N 42°21' W 071°02'0 0.0
2017-Jun-18 02:30N 42°21' W 071°02'0 0.0
2017-Jun-18 02:00N 42°21' W 071°02'0 0.0
2017-Jun-17 22:36N 42°21' W 071°02'0 0.0
2017-Jun-17 22:24N 42°21' W 071°02'0 0.0
2017-Jun-17 21:54N 42°21' W 071°02'0 0.2
2017-Jun-17 21:30N 42°21' W 071°02'0 0.1
2017-Jun-17 21:00N 42°21' W 071°02'0 0.0
2017-Jun-17 20:30N 42°21' W 071°02'0 0.0
2017-Jun-17 20:00N 42°21' W 071°02'0 0.0
2017-Jun-17 19:30N 42°21' W 071°02'0 0.1
2017-Jun-17 18:58N 42°21' W 071°02'0 0.0
2017-Jun-17 18:25N 42°21' W 071°02'0 0.0
2017-Jun-17 17:58N 42°21' W 071°02'0 0.0
2017-Jun-17 17:28N 42°21' W 071°02'0 0.4
2017-Jun-17 17:00N 42°21' W 071°02'0 0.9
2017-Jun-17 16:30N 42°22' W 071°03'1 1.0
2017-Jun-17 16:00N 42°21' W 071°02'3 5.8
2017-Jun-17 15:30N 42°20' W 070°58'3 5.7
2017-Jun-17 15:00N 42°22' W 070°55'4 3.6
2017-Jun-17 13:59N 42°24' W 070°52'0 0.0
2017-Jun-17 13:29N 42°24' W 070°52'0 0.0
2017-Jun-17 12:59N 42°24' W 070°52'0 0.1
2017-Jun-17 12:23N 42°25' W 070°52'0 0.0
2017-Jun-17 11:59N 42°25' W 070°52'0 0.0
2017-Jun-17 11:26N 42°25' W 070°52'0 0.0
2017-Jun-17 10:59N 42°25' W 070°52'0 0.0
2017-Jun-17 10:26N 42°25' W 070°52'0 0.0
2017-Jun-17 09:47N 42°25' W 070°52'0 0.0
2017-Jun-17 09:29N 42°25' W 070°52'0 0.0
2017-Jun-17 08:50N 42°25' W 070°52'0 0.0
2017-Jun-17 08:20N 42°25' W 070°52'0 0.0
2017-Jun-17 07:59N 42°25' W 070°52'0 0.0
2017-Jun-17 07:29N 42°25' W 070°52'0 0.0
2017-Jun-17 06:44N 42°25' W 070°52'0 0.0
2017-Jun-17 05:44N 42°25' W 070°52'0 0.0
2017-Jun-17 05:29N 42°25' W 070°52'0 0.0
2017-Jun-17 04:59N 42°25' W 070°52'0 0.0
2017-Jun-17 04:14N 42°25' W 070°52'0 0.0
2017-Jun-17 03:59N 42°25' W 070°52'0 0.0
2017-Jun-17 03:29N 42°25' W 070°52'0 0.0
2017-Jun-17 02:56N 42°25' W 070°52'0 0.0
2017-Jun-17 02:29N 42°25' W 070°52'0 0.0
2017-Jun-17 01:59N 42°25' W 070°52'0 0.0
2017-Jun-17 01:29N 42°25' W 070°52'0 0.0
2017-Jun-17 00:59N 42°25' W 070°52'0 0.0
2017-Jun-17 00:29N 42°25' W 070°52'0 0.0
2017-Jun-16 23:59N 42°25' W 070°52'0 0.0
2017-Jun-16 23:29N 42°25' W 070°52'0 0.0
2017-Jun-16 22:59N 42°25' W 070°52'0 0.0
2017-Jun-16 22:26N 42°25' W 070°52'0 0.0
2017-Jun-16 21:47N 42°25' W 070°52'0 0.0
2017-Jun-16 21:23N 42°25' W 070°52'0 0.0
2017-Jun-16 20:56N 42°25' W 070°52'0 0.0
2017-Jun-16 20:29N 42°25' W 070°52'0 0.0
2017-Jun-16 19:59N 42°25' W 070°52'0 0.2
2017-Jun-16 19:11N 42°25' W 070°52'0 0.7
2017-Jun-16 18:56N 42°25' W 070°52'0 0.0
2017-Jun-16 18:29N 42°25' W 070°52'0 0.0
2017-Jun-16 17:59N 42°25' W 070°52'0 0.0
2017-Jun-16 17:14N 42°25' W 070°52'0 0.0
2017-Jun-16 16:59N 42°25' W 070°52'0 0.0
2017-Jun-16 16:29N 42°25' W 070°52'0 0.0
2017-Jun-16 15:59N 42°25' W 070°52'0 0.0
2017-Jun-16 15:26N 42°25' W 070°52'0 0.0
2017-Jun-16 14:53N 42°25' W 070°52'0 0.0
2017-Jun-16 14:26N 42°25' W 070°52'0 0.0
2017-Jun-16 13:29N 42°25' W 070°52'0 0.0
2017-Jun-16 12:47N 42°25' W 070°52'0 0.0
2017-Jun-16 12:29N 42°25' W 070°52'0 0.0
2017-Jun-16 11:53N 42°25' W 070°52'0 0.0
2017-Jun-16 11:14N 42°25' W 070°52'0 0.0
2017-Jun-16 10:56N 42°25' W 070°52'0 0.0
2017-Jun-16 10:29N 42°25' W 070°52'0 0.0
2017-Jun-16 09:59N 42°25' W 070°52'0 0.0
2017-Jun-16 09:26N 42°25' W 070°52'0 0.0
2017-Jun-16 08:59N 42°25' W 070°52'0 0.0
2017-Jun-16 08:20N 42°25' W 070°52'0 0.0
2017-Jun-16 07:53N 42°25' W 070°52'0 0.0
2017-Jun-16 07:26N 42°25' W 070°52'0 0.0
2017-Jun-16 06:38N 42°25' W 070°52'0 0.0
2017-Jun-16 06:23N 42°25' W 070°52'0 0.0
2017-Jun-16 05:35N 42°25' W 070°52'0 0.0
2017-Jun-16 05:23N 42°25' W 070°52'0 0.0
2017-Jun-16 04:59N 42°25' W 070°52'0 0.0
2017-Jun-16 04:26N 42°25' W 070°52'0 0.0
2017-Jun-16 03:56N 42°25' W 070°52'0 0.1
2017-Jun-16 03:29N 42°25' W 070°52'0 0.0
2017-Jun-16 02:59N 42°25' W 070°52'0 0.0
2017-Jun-16 02:23N 42°25' W 070°52'0 0.0
2017-Jun-16 01:59N 42°25' W 070°52'0 0.0
2017-Jun-16 01:26N 42°25' W 070°52'0 0.0
2017-Jun-16 00:53N 42°25' W 070°52'0 0.0
2017-Jun-16 00:29N 42°25' W 070°52'0 0.0
2017-Jun-15 23:56N 42°25' W 070°52'0 0.0
2017-Jun-15 23:29N 42°25' W 070°52'0 0.0
2017-Jun-15 22:59N 42°25' W 070°52'0 0.0
2017-Jun-15 22:29N 42°25' W 070°52'0 0.0
2017-Jun-15 21:59N 42°25' W 070°52'0 0.0
2017-Jun-15 21:29N 42°25' W 070°52'0 0.0
2017-Jun-15 20:47N 42°25' W 070°52'0 0.0
2017-Jun-15 20:23N 42°25' W 070°52'0 0.0
2017-Jun-15 19:53N 42°25' W 070°52'0 0.0
2017-Jun-15 19:23N 42°25' W 070°52'0 0.0
2017-Jun-15 18:59N 42°25' W 070°52'0 0.0
2017-Jun-15 18:29N 42°25' W 070°52'0 0.0
2017-Jun-15 17:59N 42°25' W 070°52'0 0.0
2017-Jun-15 17:29N 42°25' W 070°52'0 0.0
2017-Jun-15 16:56N 42°25' W 070°52'0 0.0
2017-Jun-15 16:29N 42°25' W 070°52'0 0.0
2017-Jun-15 15:56N 42°25' W 070°52'0 0.0
2017-Jun-15 15:26N 42°25' W 070°52'0 0.0
2017-Jun-15 14:59N 42°25' W 070°52'0 0.0
2017-Jun-15 13:59N 42°25' W 070°52'0 0.1
2017-Jun-15 13:29N 42°25' W 070°52'0 0.0
2017-Jun-15 12:59N 42°25' W 070°52'0 0.0
2017-Jun-15 12:29N 42°25' W 070°52'0 0.0
2017-Jun-15 11:56N 42°25' W 070°52'0 0.0
2017-Jun-15 11:29N 42°25' W 070°52'0 0.0
2017-Jun-15 10:59N 42°25' W 070°52'0 0.0
2017-Jun-15 10:29N 42°25' W 070°52'0 0.0
2017-Jun-15 09:59N 42°25' W 070°52'0 0.0
2017-Jun-15 09:29N 42°25' W 070°52'0 0.0
2017-Jun-15 08:59N 42°25' W 070°52'0 0.0
2017-Jun-15 08:29N 42°25' W 070°52'0 0.0
2017-Jun-15 07:56N 42°25' W 070°52'0 0.0
2017-Jun-15 07:26N 42°25' W 070°52'0 0.0
2017-Jun-15 06:59N 42°25' W 070°52'0 0.0
2017-Jun-15 06:29N 42°25' W 070°52'0 0.0
2017-Jun-15 05:59N 42°25' W 070°52'0 0.0
2017-Jun-15 05:29N 42°25' W 070°52'0 0.0
2017-Jun-15 04:56N 42°25' W 070°52'0 0.0
2017-Jun-15 04:26N 42°25' W 070°52'0 0.0
2017-Jun-15 03:59N 42°25' W 070°52'0 0.0
2017-Jun-15 03:29N 42°25' W 070°52'0 0.0
2017-Jun-15 02:59N 42°25' W 070°52'0 0.0
2017-Jun-15 02:29N 42°25' W 070°52'0 0.0
2017-Jun-15 01:59N 42°25' W 070°52'0 0.0
2017-Jun-15 01:29N 42°25' W 070°52'0 0.0
2017-Jun-15 01:01N 42°25' W 070°52'0 0.0
2017-Jun-15 00:31N 42°25' W 070°52'0 0.8
2017-Jun-15 00:00N 42°25' W 070°52'1 1.6
2017-Jun-14 23:30N 42°25' W 070°51'1 1.5
2017-Jun-14 23:00N 42°25' W 070°50'1 1.8
2017-Jun-14 22:31N 42°26' W 070°49'1 1.7
2017-Jun-14 22:00N 42°27' W 070°48'1 1.5
2017-Jun-14 21:30N 42°27' W 070°47'2 3.4
2017-Jun-14 21:01N 42°25' W 070°48'1 1.4
2017-Jun-14 20:30N 42°24' W 070°47'1 2.5
2017-Jun-14 20:00N 42°23' W 070°48'2 3.1
2017-Jun-14 19:31N 42°22' W 070°50'2 3.3
2017-Jun-14 19:00N 42°24' W 070°49'2 3.3
2017-Jun-14 18:31N 42°25' W 070°49'2 3.1
2017-Jun-14 17:58N 42°27' W 070°48'1 2.2
2017-Jun-14 17:30N 42°28' W 070°47'2 3.0
2017-Jun-14 17:00N 42°27' W 070°45'1 3.0
2017-Jun-14 16:31N 42°27' W 070°43'2 3.2
2017-Jun-14 16:00N 42°27' W 070°41'2 3.2
2017-Jun-14 15:30N 42°27' W 070°39'1 2.3
2017-Jun-14 15:01N 42°28' W 070°37'1 1.0
2017-Jun-14 14:00N 42°29' W 070°38'1 2.7
2017-Jun-14 13:30N 42°29' W 070°39'2 4.0
2017-Jun-14 13:01N 42°30' W 070°42'1 2.4
2017-Jun-14 12:30N 42°30' W 070°43'2 4.6
2017-Jun-14 12:00N 42°29' W 070°41'2 4.3
2017-Jun-14 11:30N 42°28' W 070°38'2 3.8
2017-Jun-14 11:00N 42°28' W 070°36'2 4.2
2017-Jun-14 10:30N 42°28' W 070°33'2 3.8
2017-Jun-14 10:00N 42°28' W 070°30'1 2.6
2017-Jun-14 09:30N 42°27' W 070°29'9 2.3
2017-Jun-14 05:22N 42°25' W 070°16'1 1.6
2017-Jun-14 05:01N 42°25' W 070°16'0 0.8
2017-Jun-14 04:30N 42°26' W 070°15'1 1.4
2017-Jun-14 04:00N 42°26' W 070°14'0 0.7
2017-Jun-14 03:31N 42°26' W 070°14'1 1.9
2017-Jun-14 03:01N 42°26' W 070°13'1 2.4
2017-Jun-14 02:28N 42°26' W 070°11'3 3.0
2017-Jun-14 01:37N 42°26' W 070°08'0 3.1
2017-Jun-14 01:29N 42°26' W 070°07'1 1.4
2017-Jun-14 00:56N 42°27' W 070°08'1 2.1
2017-Jun-14 00:30N 42°26' W 070°08'4 1.7
2017-Jun-13 21:57N 42°22' W 070°07'1 0.7
2017-Jun-13 21:10N 42°22' W 070°07'0 0.6
2017-Jun-13 20:37N 42°22' W 070°08'0 1.0
2017-Jun-13 20:30N 42°23' W 070°08'1 1.0
2017-Jun-13 19:52N 42°22' W 070°07'  
Track history (hours):
 
Tides and Currents Weather Stations Pressure Air Temp Water Temp Dewpoint Dewpoint Depression Visibility Wind Speed Wind Dir Waves Ship Positions

Picton Castle (Cook Islands)

Ship's website: http://www.picton-castle.com/

Last reported at 2017-Jun-23 04:53 UTC. Time now 2017-Jun-28 22:51 UTC.
Position N 42°41' W 069°50'.

Length 37 m; draft 4.4 m.

Type: Sailing vessel. MMSI: 518000019.

Date/timePositionNaut miles runAvg speedWind from/ knotsBaromVisibWave heightAir tempDewpointWater temp
2017-Jun-23 04:53N 42°41' W 069°50'1 3.2
2017-Jun-23 04:29N 42°41' W 069°52'3 3.3
2017-Jun-23 03:38N 42°41' W 069°56'1 4.0
2017-Jun-23 03:27N 42°41' W 069°57'2 4.2
2017-Jun-23 03:00N 42°41' W 069°59'2 4.2
2017-Jun-23 02:30N 42°41' W 070°02'2 4.4
2017-Jun-23 02:00N 42°41' W 070°05'2 4.7
2017-Jun-23 01:30N 42°41' W 070°08'2 3.8
2017-Jun-23 01:00N 42°41' W 070°11'2 3.3
2017-Jun-23 00:30N 42°41' W 070°13'2 4.4
2017-Jun-23 00:00N 42°41' W 070°16'3 4.9
2017-Jun-22 23:30N 42°40' W 070°19'2 4.8
2017-Jun-22 23:00N 42°39' W 070°23'3 5.3
2017-Jun-22 22:30N 42°38' W 070°26'3 6.5
2017-Jun-22 22:00N 42°37' W 070°29'4 7.5
2017-Jun-22 21:30N 42°34' W 070°33'4 7.1
2017-Jun-22 21:00N 42°32' W 070°37'4 7.3
2017-Jun-22 20:30N 42°30' W 070°41'4 7.5
2017-Jun-22 20:00N 42°28' W 070°45'4 7.1
2017-Jun-22 19:30N 42°26' W 070°49'3 6.9
2017-Jun-22 19:00N 42°24' W 070°53'4 7.7
2017-Jun-22 18:30N 42°21' W 070°56'3 6.0
2017-Jun-22 18:00N 42°20' W 071°00'2 3.1
2017-Jun-22 17:29N 42°21' W 071°02'0 0.1
2017-Jun-22 16:59N 42°21' W 071°02'0 0.0
2017-Jun-22 16:29N 42°21' W 071°02'0 0.0
2017-Jun-22 15:59N 42°21' W 071°02'0 0.0
2017-Jun-22 15:29N 42°21' W 071°02'0 0.0
2017-Jun-22 14:58N 42°21' W 071°02'0 0.0
2017-Jun-22 14:28N 42°21' W 071°02'0 0.0
2017-Jun-22 13:28N 42°21' W 071°02'0 0.1
2017-Jun-22 12:58N 42°21' W 071°02'0 0.1
2017-Jun-22 12:28N 42°21' W 071°02'0 0.0
2017-Jun-22 11:55N 42°21' W 071°02'0 0.0
2017-Jun-22 11:28N 42°21' W 071°02'0 0.0
2017-Jun-22 10:55N 42°21' W 071°02'0 0.0
2017-Jun-22 10:28N 42°21' W 071°02'0 0.0
2017-Jun-22 09:55N 42°21' W 071°02'0 0.0
2017-Jun-22 09:28N 42°21' W 071°02'0 0.0
2017-Jun-22 08:58N 42°21' W 071°02'0 0.0
2017-Jun-22 08:22N 42°21' W 071°02'0 0.0
2017-Jun-22 06:13N 42°21' W 071°02'0 0.0
2017-Jun-22 05:55N 42°21' W 071°02'0 0.0
2017-Jun-22 05:22N 42°21' W 071°02'0 0.0
2017-Jun-22 05:00N 42°21' W 071°02'0 0.0
2017-Jun-22 04:30N 42°21' W 071°02'0 0.0
2017-Jun-22 04:00N 42°21' W 071°02'0 0.0
2017-Jun-22 03:30N 42°21' W 071°02'0 0.0
2017-Jun-22 03:00N 42°21' W 071°02'0 0.0
2017-Jun-22 02:30N 42°21' W 071°02'0 0.0
2017-Jun-22 02:00N 42°21' W 071°02'0 0.0
2017-Jun-22 01:30N 42°21' W 071°02'0 0.0
2017-Jun-22 00:59N 42°21' W 071°02'0 0.0
2017-Jun-22 00:29N 42°21' W 071°02'0 0.1
2017-Jun-21 23:59N 42°21' W 071°02'0 0.1
2017-Jun-21 23:29N 42°21' W 071°02'0 0.0
2017-Jun-21 22:59N 42°21' W 071°02'0 0.0
2017-Jun-21 22:29N 42°21' W 071°02'0 0.0
2017-Jun-21 21:59N 42°21' W 071°02'0 0.0
2017-Jun-21 21:29N 42°21' W 071°02'0 0.0
2017-Jun-21 20:59N 42°21' W 071°02'0 0.0
2017-Jun-21 20:29N 42°21' W 071°02'0 0.0
2017-Jun-21 18:59N 42°21' W 071°02'0 0.0
2017-Jun-21 18:29N 42°21' W 071°02'0 0.0
2017-Jun-21 17:59N 42°21' W 071°02'0 0.0
2017-Jun-21 17:29N 42°21' W 071°02'0 0.0
2017-Jun-21 16:59N 42°21' W 071°02'0 0.0
2017-Jun-21 16:29N 42°21' W 071°02'0 0.0
2017-Jun-21 15:59N 42°21' W 071°02'0 0.0
2017-Jun-21 15:29N 42°21' W 071°02'0 0.0
2017-Jun-21 14:56N 42°21' W 071°02'0 0.0
2017-Jun-21 14:26N 42°21' W 071°02'0 0.0
2017-Jun-21 13:29N 42°21' W 071°02'0 0.0
2017-Jun-21 12:59N 42°21' W 071°02'0 0.0
2017-Jun-21 12:29N 42°21' W 071°02'0 0.0
2017-Jun-21 11:59N 42°21' W 071°02'0 0.0
2017-Jun-21 11:29N 42°21' W 071°02'0 0.0
2017-Jun-21 10:56N 42°21' W 071°02'0 0.0
2017-Jun-21 10:29N 42°21' W 071°02'0 0.0
2017-Jun-21 09:59N 42°21' W 071°02'0 0.0
2017-Jun-21 09:29N 42°21' W 071°02'0 0.0
2017-Jun-21 08:59N 42°21' W 071°02'0 0.0
2017-Jun-21 08:20N 42°21' W 071°02'0 0.0
2017-Jun-21 07:56N 42°21' W 071°02'0 0.0
2017-Jun-21 07:26N 42°21' W 071°02'0 0.0
2017-Jun-21 06:59N 42°21' W 071°02'0 0.0
2017-Jun-21 06:28N 42°21' W 071°02'0 0.0
2017-Jun-21 05:58N 42°21' W 071°02'0 0.0
2017-Jun-21 05:25N 42°21' W 071°02'0 0.1
2017-Jun-21 04:58N 42°21' W 071°02'0 0.1
2017-Jun-21 04:28N 42°21' W 071°02'0 0.0
2017-Jun-21 03:58N 42°21' W 071°02'0 0.0
2017-Jun-21 03:28N 42°21' W 071°02'0 0.0
2017-Jun-21 02:58N 42°21' W 071°02'0 0.0
2017-Jun-21 02:28N 42°21' W 071°02'0 0.0
2017-Jun-21 01:58N 42°21' W 071°02'0 0.0
2017-Jun-21 01:28N 42°21' W 071°02'0 0.0
2017-Jun-21 00:58N 42°21' W 071°02'0 0.0
2017-Jun-21 00:28N 42°21' W 071°02'0 0.0
2017-Jun-20 23:55N 42°21' W 071°02'0 0.0
2017-Jun-20 23:28N 42°21' W 071°02'0 0.0
2017-Jun-20 22:58N 42°21' W 071°02'0 0.0
2017-Jun-20 22:28N 42°21' W 071°02'0 0.1
2017-Jun-20 21:58N 42°21' W 071°02'0 0.0
2017-Jun-20 21:28N 42°21' W 071°02'0 0.0
2017-Jun-20 20:58N 42°21' W 071°02'0 0.0
2017-Jun-20 19:52N 42°21' W 071°02'0 0.0
2017-Jun-20 19:10N 42°21' W 071°02'0 0.0
2017-Jun-20 19:00N 42°21' W 071°02'0 0.0
2017-Jun-20 18:18N 42°21' W 071°02'0 0.0
2017-Jun-20 17:36N 42°21' W 071°02'0 0.0
2017-Jun-20 17:27N 42°21' W 071°02'0 0.0
2017-Jun-20 16:57N 42°21' W 071°02'0 0.1
2017-Jun-20 16:27N 42°21' W 071°02'0 0.0
2017-Jun-20 15:57N 42°21' W 071°02'0 0.0
2017-Jun-20 15:27N 42°21' W 071°02'0 0.0
2017-Jun-20 14:54N 42°21' W 071°02'0 0.0
2017-Jun-20 13:57N 42°21' W 071°02'0 0.0
2017-Jun-20 13:30N 42°21' W 071°02'0 0.0
2017-Jun-20 13:00N 42°21' W 071°02'0 0.0
2017-Jun-20 12:30N 42°21' W 071°02'0 0.0
2017-Jun-20 12:00N 42°21' W 071°02'0 0.0
2017-Jun-20 11:27N 42°21' W 071°02'0 0.0
2017-Jun-20 10:57N 42°21' W 071°02'0 0.0
2017-Jun-20 10:30N 42°21' W 071°02'0 0.0
2017-Jun-20 10:00N 42°21' W 071°02'0 0.0
2017-Jun-20 09:27N 42°21' W 071°02'0 0.0
2017-Jun-20 08:57N 42°21' W 071°02'0 0.0
2017-Jun-20 08:21N 42°21' W 071°02'0 0.0
2017-Jun-20 07:57N 42°21' W 071°02'0 0.0
2017-Jun-20 07:30N 42°21' W 071°02'0 0.0
2017-Jun-20 07:00N 42°21' W 071°02'0 0.0
2017-Jun-20 06:18N 42°21' W 071°02'0 0.0
2017-Jun-20 05:54N 42°21' W 071°02'0 0.0
2017-Jun-20 05:30N 42°21' W 071°02'0 0.0
2017-Jun-20 05:00N 42°21' W 071°02'0 0.0
2017-Jun-20 04:30N 42°21' W 071°02'0 0.0
2017-Jun-20 04:00N 42°21' W 071°02'0 0.0
2017-Jun-20 03:30N 42°21' W 071°02'0 0.0
2017-Jun-20 03:00N 42°21' W 071°02'0 0.0
2017-Jun-20 02:30N 42°21' W 071°02'0 0.0
2017-Jun-20 02:00N 42°21' W 071°02'0 0.1
2017-Jun-20 01:30N 42°21' W 071°02'0 0.0
2017-Jun-20 01:00N 42°21' W 071°02'0 0.0
2017-Jun-20 00:30N 42°21' W 071°02'0 0.0
2017-Jun-19 23:57N 42°21' W 071°02'0 0.0
2017-Jun-19 23:21N 42°21' W 071°02'0 0.0
2017-Jun-19 22:57N 42°21' W 071°02'0 0.0
2017-Jun-19 22:30N 42°21' W 071°02'0 0.0
2017-Jun-19 21:54N 42°21' W 071°02'0 0.0
2017-Jun-19 21:27N 42°21' W 071°02'0 0.0
2017-Jun-19 20:57N 42°21' W 071°02'0 0.0
2017-Jun-19 20:27N 42°21' W 071°02'0 0.0
2017-Jun-19 20:00N 42°21' W 071°02'0 0.0
2017-Jun-19 19:15N 42°21' W 071°02'0 0.0
2017-Jun-19 18:47N 42°21' W 071°02'0 0.0
2017-Jun-19 18:29N 42°21' W 071°02'0 0.0
2017-Jun-19 17:56N 42°21' W 071°02'0 0.0
2017-Jun-19 17:29N 42°21' W 071°02'0 0.0
2017-Jun-19 16:56N 42°21' W 071°02'0 0.0
2017-Jun-19 16:08N 42°21' W 071°02'0 0.1
2017-Jun-19 15:59N 42°21' W 071°02'0 0.0
2017-Jun-19 15:26N 42°21' W 071°02'0 0.0
2017-Jun-19 14:59N 42°21' W 071°02'0 0.0
2017-Jun-19 14:29N 42°21' W 071°02'0 0.0
2017-Jun-19 13:26N 42°21' W 071°02'0 0.1
2017-Jun-19 12:59N 42°21' W 071°02'0 0.0
2017-Jun-19 12:29N 42°21' W 071°02'0 0.0
2017-Jun-19 11:59N 42°21' W 071°02'0 0.0
2017-Jun-19 11:29N 42°21' W 071°02'0 0.0
2017-Jun-19 10:56N 42°21' W 071°02'0 0.0
2017-Jun-19 10:26N 42°21' W 071°02'0 0.0
2017-Jun-19 09:50N 42°21' W 071°02'0 0.0
2017-Jun-19 09:29N 42°21' W 071°02'0 0.0
2017-Jun-19 08:59N 42°21' W 071°02'0 0.0
2017-Jun-19 08:26N 42°21' W 071°02'0 0.0
2017-Jun-19 07:59N 42°21' W 071°02'0 0.0
2017-Jun-19 07:29N 42°21' W 071°02'0 0.0
2017-Jun-19 06:56N 42°21' W 071°02'0 0.0
2017-Jun-19 06:29N 42°21' W 071°02'0 0.0
2017-Jun-19 05:59N 42°21' W 071°02'0 0.0
2017-Jun-19 05:29N 42°21' W 071°02'0 0.0
2017-Jun-19 04:59N 42°21' W 071°02'0 0.0
2017-Jun-19 04:29N 42°21' W 071°02'0 0.0
2017-Jun-19 03:53N 42°21' W 071°02'0 0.0
2017-Jun-19 03:29N 42°21' W 071°02'0 0.0
2017-Jun-19 02:59N 42°21' W 071°02'0 0.0
2017-Jun-19 02:29N 42°21' W 071°02'0 0.0
2017-Jun-19 01:59N 42°21' W 071°02'0 0.2
2017-Jun-19 01:29N 42°21' W 071°02'0 0.2
2017-Jun-19 00:59N 42°21' W 071°02'0 0.0
2017-Jun-19 00:29N 42°21' W 071°02'0 0.0
2017-Jun-18 23:59N 42°21' W 071°02'0 0.0
2017-Jun-18 23:26N 42°21' W 071°02'0 0.0
2017-Jun-18 22:59N 42°21' W 071°02'0 0.0
2017-Jun-18 22:29N 42°21' W 071°02'0 0.0
2017-Jun-18 21:56N 42°21' W 071°02'0 0.0
2017-Jun-18 21:29N 42°21' W 071°02'0 0.0
2017-Jun-18 20:59N 42°21' W 071°02'0 0.0
2017-Jun-18 20:29N 42°21' W 071°02'0 0.0
2017-Jun-18 19:53N 42°21' W 071°02'0 0.0
2017-Jun-18 19:29N 42°21' W 071°02'0 0.1
2017-Jun-18 18:58N 42°21' W 071°02'0 0.0
2017-Jun-18 18:28N 42°21' W 071°02'0 0.0
2017-Jun-18 17:46N 42°21' W 071°02'0 0.1
2017-Jun-18 17:22N 42°21' W 071°02'0 0.1
2017-Jun-18 16:52N 42°21' W 071°02'0 0.0
2017-Jun-18 16:28N 42°21' W 071°02'0 0.0
2017-Jun-18 15:58N 42°21' W 071°02'0 0.0
2017-Jun-18 15:28N 42°21' W 071°02'0 0.0
2017-Jun-18 14:49N 42°21' W 071°02'0 0.0
2017-Jun-18 13:55N 42°21' W 071°02'0 0.1
2017-Jun-18 13:28N 42°21' W 071°02'0 0.0
2017-Jun-18 12:55N 42°21' W 071°02'0 0.0
2017-Jun-18 12:28N 42°21' W 071°02'0 0.0
2017-Jun-18 11:58N 42°21' W 071°02'0 0.0
2017-Jun-18 11:19N 42°21' W 071°02'0 0.0
2017-Jun-18 10:55N 42°21' W 071°02'0 0.0
2017-Jun-18 10:25N 42°21' W 071°02'0 0.0
2017-Jun-18 09:58N 42°21' W 071°02'0 0.0
2017-Jun-18 09:28N 42°21' W 071°02'0 0.0
2017-Jun-18 08:58N 42°21' W 071°02'0 0.0
2017-Jun-18 08:28N 42°21' W 071°02'0 0.0
2017-Jun-18 07:58N 42°21' W 071°02'0 0.0
2017-Jun-18 07:28N 42°21' W 071°02'0 0.0
2017-Jun-18 07:00N 42°21' W 071°02'0 0.0
2017-Jun-18 06:24N 42°21' W 071°02'0 0.0
2017-Jun-18 06:00N 42°21' W 071°02'0 0.0
2017-Jun-18 05:30N 42°21' W 071°02'0 0.0
2017-Jun-18 05:00N 42°21' W 071°02'0 0.0
2017-Jun-18 04:27N 42°21' W 071°02'0 0.0
2017-Jun-18 03:51N 42°21' W 071°02'0 0.0
2017-Jun-18 03:30N 42°21' W 071°02'0 0.0
2017-Jun-18 03:00N 42°21' W 071°02'0 0.0
2017-Jun-18 02:30N 42°21' W 071°02'0 0.0
2017-Jun-18 02:00N 42°21' W 071°02'0 0.0
2017-Jun-17 22:36N 42°21' W 071°02'0 0.0
2017-Jun-17 22:24N 42°21' W 071°02'0 0.0
2017-Jun-17 21:54N 42°21' W 071°02'0 0.2
2017-Jun-17 21:30N 42°21' W 071°02'0 0.1
2017-Jun-17 21:00N 42°21' W 071°02'0 0.0
2017-Jun-17 20:30N 42°21' W 071°02'0 0.0
2017-Jun-17 20:00N 42°21' W 071°02'0 0.0
2017-Jun-17 19:30N 42°21' W 071°02'0 0.1
2017-Jun-17 18:58N 42°21' W 071°02'0 0.0
2017-Jun-17 18:25N 42°21' W 071°02'0 0.0
2017-Jun-17 17:58N 42°21' W 071°02'0 0.0
2017-Jun-17 17:28N 42°21' W 071°02'0 0.4
2017-Jun-17 17:00N 42°21' W 071°02'0 0.9
2017-Jun-17 16:30N 42°22' W 071°03'1 1.0
2017-Jun-17 16:00N 42°21' W 071°02'3 5.8
2017-Jun-17 15:30N 42°20' W 070°58'3 5.7
2017-Jun-17 15:00N 42°22' W 070°55'4 3.6
2017-Jun-17 13:59N 42°24' W 070°52'0 0.0
2017-Jun-17 13:29N 42°24' W 070°52'0 0.0
2017-Jun-17 12:59N 42°24' W 070°52'0 0.1
2017-Jun-17 12:23N 42°25' W 070°52'0 0.0
2017-Jun-17 11:59N 42°25' W 070°52'0 0.0
2017-Jun-17 11:26N 42°25' W 070°52'0 0.0
2017-Jun-17 10:59N 42°25' W 070°52'0 0.0
2017-Jun-17 10:26N 42°25' W 070°52'0 0.0
2017-Jun-17 09:47N 42°25' W 070°52'0 0.0
2017-Jun-17 09:29N 42°25' W 070°52'0 0.0
2017-Jun-17 08:50N 42°25' W 070°52'0 0.0
2017-Jun-17 08:20N 42°25' W 070°52'0 0.0
2017-Jun-17 07:59N 42°25' W 070°52'0 0.0
2017-Jun-17 07:29N 42°25' W 070°52'0 0.0
2017-Jun-17 06:44N 42°25' W 070°52'0 0.0
2017-Jun-17 05:44N 42°25' W 070°52'0 0.0
2017-Jun-17 05:29N 42°25' W 070°52'0 0.0
2017-Jun-17 04:59N 42°25' W 070°52'0 0.0
2017-Jun-17 04:14N 42°25' W 070°52'0 0.0
2017-Jun-17 03:59N 42°25' W 070°52'0 0.0
2017-Jun-17 03:29N 42°25' W 070°52'0 0.0
2017-Jun-17 02:56N 42°25' W 070°52'0 0.0
2017-Jun-17 02:29N 42°25' W 070°52'0 0.0
2017-Jun-17 01:59N 42°25' W 070°52'0 0.0
2017-Jun-17 01:29N 42°25' W 070°52'0 0.0
2017-Jun-17 00:59N 42°25' W 070°52'0 0.0
2017-Jun-17 00:29N 42°25' W 070°52'0 0.0
2017-Jun-16 23:59N 42°25' W 070°52'0 0.0
2017-Jun-16 23:29N 42°25' W 070°52'0 0.0
2017-Jun-16 22:59N 42°25' W 070°52'0 0.0
2017-Jun-16 22:26N 42°25' W 070°52'0 0.0
2017-Jun-16 21:47N 42°25' W 070°52'0 0.0
2017-Jun-16 21:23N 42°25' W 070°52'0 0.0
2017-Jun-16 20:56N 42°25' W 070°52'0 0.0
2017-Jun-16 20:29N 42°25' W 070°52'0 0.0
2017-Jun-16 19:59N 42°25' W 070°52'0 0.2
2017-Jun-16 19:11N 42°25' W 070°52'0 0.7
2017-Jun-16 18:56N 42°25' W 070°52'0 0.0
2017-Jun-16 18:29N 42°25' W 070°52'0 0.0
2017-Jun-16 17:59N 42°25' W 070°52'0 0.0
2017-Jun-16 17:14N 42°25' W 070°52'0 0.0
2017-Jun-16 16:59N 42°25' W 070°52'0 0.0
2017-Jun-16 16:29N 42°25' W 070°52'0 0.0
2017-Jun-16 15:59N 42°25' W 070°52'0 0.0
2017-Jun-16 15:26N 42°25' W 070°52'0 0.0
2017-Jun-16 14:53N 42°25' W 070°52'0 0.0
2017-Jun-16 14:26N 42°25' W 070°52'0 0.0
2017-Jun-16 13:29N 42°25' W 070°52'0 0.0
2017-Jun-16 12:47N 42°25' W 070°52'0 0.0
2017-Jun-16 12:29N 42°25' W 070°52'0 0.0
2017-Jun-16 11:53N 42°25' W 070°52'0 0.0
2017-Jun-16 11:14N 42°25' W 070°52'0 0.0
2017-Jun-16 10:56N 42°25' W 070°52'0 0.0
2017-Jun-16 10:29N 42°25' W 070°52'0 0.0
2017-Jun-16 09:59N 42°25' W 070°52'0 0.0
2017-Jun-16 09:26N 42°25' W 070°52'0 0.0
2017-Jun-16 08:59N 42°25' W 070°52'0 0.0
2017-Jun-16 08:20N 42°25' W 070°52'0 0.0
2017-Jun-16 07:53N 42°25' W 070°52'0 0.0
2017-Jun-16 07:26N 42°25' W 070°52'0 0.0
2017-Jun-16 06:38N 42°25' W 070°52'0 0.0
2017-Jun-16 06:23N 42°25' W 070°52'0 0.0
2017-Jun-16 05:35N 42°25' W 070°52'0 0.0
2017-Jun-16 05:23N 42°25' W 070°52'0 0.0
2017-Jun-16 04:59N 42°25' W 070°52'0 0.0
2017-Jun-16 04:26N 42°25' W 070°52'0 0.0
2017-Jun-16 03:56N 42°25' W 070°52'0 0.1
2017-Jun-16 03:29N 42°25' W 070°52'0 0.0
2017-Jun-16 02:59N 42°25' W 070°52'0 0.0
2017-Jun-16 02:23N 42°25' W 070°52'0 0.0
2017-Jun-16 01:59N 42°25' W 070°52'0 0.0
2017-Jun-16 01:26N 42°25' W 070°52'0 0.0
2017-Jun-16 00:53N 42°25' W 070°52'0 0.0
2017-Jun-16 00:29N 42°25' W 070°52'0 0.0
2017-Jun-15 23:56N 42°25' W 070°52'0 0.0
2017-Jun-15 23:29N 42°25' W 070°52'0 0.0
2017-Jun-15 22:59N 42°25' W 070°52'0 0.0
2017-Jun-15 22:29N 42°25' W 070°52'0 0.0
2017-Jun-15 21:59N 42°25' W 070°52'0 0.0
2017-Jun-15 21:29N 42°25' W 070°52'0 0.0
2017-Jun-15 20:47N 42°25' W 070°52'0 0.0
2017-Jun-15 20:23N 42°25' W 070°52'0 0.0
2017-Jun-15 19:53N 42°25' W 070°52'0 0.0
2017-Jun-15 19:23N 42°25' W 070°52'0 0.0
2017-Jun-15 18:59N 42°25' W 070°52'0 0.0
2017-Jun-15 18:29N 42°25' W 070°52'0 0.0
2017-Jun-15 17:59N 42°25' W 070°52'0 0.0
2017-Jun-15 17:29N 42°25' W 070°52'0 0.0
2017-Jun-15 16:56N 42°25' W 070°52'0 0.0
2017-Jun-15 16:29N 42°25' W 070°52'0 0.0
2017-Jun-15 15:56N 42°25' W 070°52'0 0.0
2017-Jun-15 15:26N 42°25' W 070°52'0 0.0
2017-Jun-15 14:59N 42°25' W 070°52'0 0.0
2017-Jun-15 13:59N 42°25' W 070°52'0 0.1
2017-Jun-15 13:29N 42°25' W 070°52'0 0.0
2017-Jun-15 12:59N 42°25' W 070°52'0 0.0
2017-Jun-15 12:29N 42°25' W 070°52'0 0.0
2017-Jun-15 11:56N 42°25' W 070°52'0 0.0
2017-Jun-15 11:29N 42°25' W 070°52'0 0.0
2017-Jun-15 10:59N 42°25' W 070°52'0 0.0
2017-Jun-15 10:29N 42°25' W 070°52'0 0.0
2017-Jun-15 09:59N 42°25' W 070°52'0 0.0
2017-Jun-15 09:29N 42°25' W 070°52'0 0.0
2017-Jun-15 08:59N 42°25' W 070°52'0 0.0
2017-Jun-15 08:29N 42°25' W 070°52'0 0.0
2017-Jun-15 07:56N 42°25' W 070°52'0 0.0
2017-Jun-15 07:26N 42°25' W 070°52'0 0.0
2017-Jun-15 06:59N 42°25' W 070°52'0 0.0
2017-Jun-15 06:29N 42°25' W 070°52'0 0.0
2017-Jun-15 05:59N 42°25' W 070°52'0 0.0
2017-Jun-15 05:29N 42°25' W 070°52'0 0.0
2017-Jun-15 04:56N 42°25' W 070°52'0 0.0
2017-Jun-15 04:26N 42°25' W 070°52'0 0.0
2017-Jun-15 03:59N 42°25' W 070°52'0 0.0
2017-Jun-15 03:29N 42°25' W 070°52'0 0.0
2017-Jun-15 02:59N 42°25' W 070°52'0 0.0
2017-Jun-15 02:29N 42°25' W 070°52'0 0.0
2017-Jun-15 01:59N 42°25' W 070°52'0 0.0
2017-Jun-15 01:29N 42°25' W 070°52'0 0.0
2017-Jun-15 01:01N 42°25' W 070°52'0 0.0
2017-Jun-15 00:31N 42°25' W 070°52'0 0.8
2017-Jun-15 00:00N 42°25' W 070°52'1 1.6
2017-Jun-14 23:30N 42°25' W 070°51'1 1.5
2017-Jun-14 23:00N 42°25' W 070°50'1 1.8
2017-Jun-14 22:31N 42°26' W 070°49'1 1.7
2017-Jun-14 22:00N 42°27' W 070°48'1 1.5
2017-Jun-14 21:30N 42°27' W 070°47'2 3.4
2017-Jun-14 21:01N 42°25' W 070°48'1 1.4
2017-Jun-14 20:30N 42°24' W 070°47'1 2.5
2017-Jun-14 20:00N 42°23' W 070°48'2 3.1
2017-Jun-14 19:31N 42°22' W 070°50'2 3.3
2017-Jun-14 19:00N 42°24' W 070°49'2 3.3
2017-Jun-14 18:31N 42°25' W 070°49'2 3.1
2017-Jun-14 17:58N 42°27' W 070°48'1 2.2
2017-Jun-14 17:30N 42°28' W 070°47'2 3.0
2017-Jun-14 17:00N 42°27' W 070°45'1 3.0
2017-Jun-14 16:31N 42°27' W 070°43'2 3.2
2017-Jun-14 16:00N 42°27' W 070°41'2 3.2
2017-Jun-14 15:30N 42°27' W 070°39'1 2.3
2017-Jun-14 15:01N 42°28' W 070°37'1 1.0
2017-Jun-14 14:00N 42°29' W 070°38'1 2.7
2017-Jun-14 13:30N 42°29' W 070°39'2 4.0
2017-Jun-14 13:01N 42°30' W 070°42'1 2.4
2017-Jun-14 12:30N 42°30' W 070°43'2 4.6
2017-Jun-14 12:00N 42°29' W 070°41'2 4.3
2017-Jun-14 11:30N 42°28' W 070°38'2 3.8
2017-Jun-14 11:00N 42°28' W 070°36'2 4.2
2017-Jun-14 10:30N 42°28' W 070°33'2 3.8
2017-Jun-14 10:00N 42°28' W 070°30'1 2.6
2017-Jun-14 09:30N 42°27' W 070°29'9 2.3
2017-Jun-14 05:22N 42°25' W 070°16'1 1.6
2017-Jun-14 05:01N 42°25' W 070°16'0 0.8
2017-Jun-14 04:30N 42°26' W 070°15'1 1.4
2017-Jun-14 04:00N 42°26' W 070°14'0 0.7
2017-Jun-14 03:31N 42°26' W 070°14'1 1.9
2017-Jun-14 03:01N 42°26' W 070°13'1 2.4
2017-Jun-14 02:28N 42°26' W 070°11'3 3.0
2017-Jun-14 01:37N 42°26' W 070°08'0 3.1
2017-Jun-14 01:29N 42°26' W 070°07'1 1.4
2017-Jun-14 00:56N 42°27' W 070°08'1 2.1
2017-Jun-14 00:30N 42°26' W 070°08'4 1.7
2017-Jun-13 21:57N 42°22' W 070°07'1 0.7
2017-Jun-13 21:10N 42°22' W 070°07'0 0.6
2017-Jun-13 20:37N 42°22' W 070°08'0 1.0
2017-Jun-13 20:30N 42°23' W 070°08'1 1.0
2017-Jun-13 19:52N 42°22' W 070°07'  

Dump ship's entire track history